createdAt,value
2018-07-10T00:01:13.764Z,59.48
2018-07-10T00:03:41.399Z,59.90
2018-07-10T00:06:09.068Z,59.53
2018-07-10T00:08:38.433Z,59.21
2018-07-10T00:11:06.088Z,59.73
2018-07-10T00:13:34.301Z,59.80
2018-07-10T00:16:03.824Z,59.66
2018-07-10T00:18:33.783Z,59.61
2018-07-10T00:21:01.440Z,59.23
2018-07-10T00:23:29.095Z,59.60
2018-07-10T00:25:57.144Z,59.50
2018-07-10T00:28:24.803Z,59.20
2018-07-10T00:30:52.972Z,59.35
2018-07-10T00:33:20.947Z,59.23
2018-07-10T00:35:48.608Z,59.46
2018-07-10T00:38:16.851Z,59.15
2018-07-10T00:40:44.515Z,59.42
2018-07-10T00:43:13.258Z,59.20
2018-07-10T00:45:41.058Z,59.57
2018-07-10T00:48:19.880Z,59.32
2018-07-10T00:50:52.455Z,59.50
2018-07-10T00:53:20.464Z,58.77
2018-07-10T00:55:48.095Z,59.10
2018-07-10T00:58:15.742Z,59.35
2018-07-10T01:00:43.395Z,59.06
2018-07-10T01:03:11.312Z,58.94
2018-07-10T01:05:38.939Z,59.37
2018-07-10T01:08:06.568Z,58.62
2018-07-10T01:10:35.644Z,58.90
2018-07-10T01:13:04.556Z,59.02
2018-07-10T01:15:32.187Z,58.76
2018-07-10T01:17:59.847Z,58.89
2018-07-10T01:20:28.419Z,58.58
2018-07-10T01:22:59.053Z,58.54
2018-07-10T01:25:26.720Z,58.93
2018-07-10T01:27:54.563Z,58.99
2018-07-10T01:30:22.558Z,58.99
2018-07-10T01:32:50.208Z,59.27
2018-07-10T01:35:17.880Z,58.97
2018-07-10T01:37:46.075Z,59.40
2018-07-10T01:40:14.025Z,59.16
2018-07-10T01:42:41.650Z,59.34
2018-07-10T01:45:09.315Z,58.85
2018-07-10T01:47:37.411Z,59.38
2018-07-10T01:50:05.046Z,59.06
2018-07-10T01:52:32.708Z,58.92
2018-07-10T01:55:00.340Z,59.02
2018-07-10T01:57:28.613Z,59.01
2018-07-10T01:59:56.555Z,59.13
2018-07-10T02:02:25.010Z,58.60
2018-07-10T02:04:52.668Z,58.81
2018-07-10T02:07:20.761Z,58.59
2018-07-10T02:09:49.032Z,58.79
2018-07-10T02:12:16.688Z,58.46
2018-07-10T02:14:44.348Z,58.96
2018-07-10T02:17:12.436Z,58.74
2018-07-10T02:19:40.134Z,58.16
2018-07-10T02:22:20.047Z,58.65
2018-07-10T02:24:58.494Z,58.89
2018-07-10T02:27:36.988Z,58.99
2018-07-10T02:30:04.624Z,58.70
2018-07-10T02:32:32.632Z,59.02
2018-07-10T02:35:00.267Z,59.22
2018-07-10T02:37:28.010Z,60.37
2018-07-10T02:39:56.036Z,59.97
2018-07-10T02:42:23.884Z,60.08
2018-07-10T02:44:51.536Z,60.74
2018-07-10T02:47:19.197Z,60.14
2018-07-10T02:49:47.287Z,60.96
2018-07-10T02:52:14.924Z,60.56
2018-07-10T02:54:42.598Z,60.59
2018-07-10T02:57:10.660Z,60.89
2018-07-10T02:59:39.018Z,60.32
2018-07-10T03:02:07.373Z,60.66
2018-07-10T03:04:35.324Z,61.20
2018-07-10T03:07:03.048Z,61.26
2018-07-10T03:09:30.710Z,60.94
2018-07-10T03:11:58.609Z,60.46
2018-07-10T03:14:26.760Z,61.04
2018-07-10T03:16:54.426Z,60.82
2018-07-10T03:19:22.180Z,60.84
2018-07-10T03:21:50.192Z,60.70
2018-07-10T03:24:17.836Z,61.08
2018-07-10T03:26:45.470Z,61.23
2018-07-10T03:29:13.656Z,61.40
2018-07-10T03:31:41.573Z,60.59
2018-07-10T03:34:09.204Z,60.65
2018-07-10T03:36:36.848Z,61.28
2018-07-10T03:39:06.009Z,61.43
2018-07-10T03:41:33.663Z,61.04
2018-07-10T03:44:01.307Z,61.39
2018-07-10T03:46:28.947Z,60.60
2018-07-10T03:48:57.519Z,61.20
2018-07-10T03:51:25.176Z,60.70
2018-07-10T03:53:52.840Z,61.25
2018-07-10T03:56:21.119Z,60.97
2018-07-10T03:58:48.767Z,60.73
2018-07-10T04:01:16.624Z,60.70
2018-07-10T04:03:44.277Z,60.83
2018-07-10T04:06:12.006Z,60.91
2018-07-10T04:08:40.240Z,61.06
2018-07-10T04:11:07.883Z,60.68
2018-07-10T04:13:36.654Z,60.95
2018-07-10T04:16:04.500Z,61.03
2018-07-10T04:18:32.425Z,60.58
2018-07-10T04:21:00.638Z,60.78
2018-07-10T04:23:28.312Z,60.28
2018-07-10T04:25:56.556Z,60.49
2018-07-10T04:28:24.555Z,60.53
2018-07-10T04:30:52.364Z,60.34
2018-07-10T04:33:20.019Z,60.58
2018-07-10T04:35:47.732Z,60.14
2018-07-10T04:38:15.700Z,60.21
2018-07-10T04:40:43.386Z,59.77
2018-07-10T04:43:11.028Z,59.33
2018-07-10T04:45:40.527Z,59.42
2018-07-10T04:48:08.209Z,59.26
2018-07-10T04:50:38.064Z,59.60
2018-07-10T04:53:07.449Z,59.36
2018-07-10T04:55:35.602Z,58.96
2018-07-10T04:58:03.829Z,59.00
2018-07-10T05:00:31.872Z,58.95
2018-07-10T05:03:00.164Z,58.74
2018-07-10T05:05:27.832Z,58.29
2018-07-10T05:07:55.744Z,58.70
2018-07-10T05:10:24.793Z,58.29
2018-07-10T05:12:52.424Z,58.70
2018-07-10T05:15:20.375Z,58.68
2018-07-10T05:17:48.089Z,58.47
2018-07-10T05:20:15.737Z,58.51
2018-07-10T05:22:43.685Z,58.80
2018-07-10T05:25:11.349Z,58.44
2018-07-10T05:27:38.991Z,59.04
2018-07-10T05:30:06.921Z,58.59
2018-07-10T05:32:34.599Z,58.86
2018-07-10T05:35:02.261Z,59.16
2018-07-10T05:37:30.556Z,58.83
2018-07-10T05:39:58.203Z,58.54
2018-07-10T05:42:25.833Z,59.01
2018-07-10T05:44:54.677Z,58.57
2018-07-10T05:47:22.732Z,58.75
2018-07-10T05:49:50.406Z,59.16
2018-07-10T05:52:19.354Z,59.15
2018-07-10T05:54:47.915Z,58.37
2018-07-10T05:57:16.061Z,58.18
2018-07-10T05:59:43.979Z,57.87
2018-07-10T06:02:11.616Z,58.41
2018-07-10T06:04:40.254Z,57.86
2018-07-10T06:07:07.878Z,57.93
2018-07-10T06:09:35.514Z,58.14
2018-07-10T06:12:03.750Z,57.64
2018-07-10T06:14:31.384Z,57.78
2018-07-10T06:16:59.033Z,58.27
2018-07-10T06:19:28.004Z,57.77
2018-07-10T06:21:55.645Z,56.99
2018-07-10T06:24:23.293Z,57.07
2018-07-10T06:26:51.265Z,56.60
2018-07-10T06:29:18.888Z,57.08
2018-07-10T06:31:46.508Z,56.88
2018-07-10T06:34:14.433Z,56.82
2018-07-10T06:36:43.564Z,56.59
2018-07-10T06:39:15.257Z,56.26
2018-07-10T06:41:43.170Z,56.91
2018-07-10T06:44:10.869Z,56.80
2018-07-10T06:46:39.964Z,56.82
2018-07-10T06:49:07.920Z,56.96
2018-07-10T06:51:35.560Z,57.63
2018-07-10T06:54:03.204Z,57.00
2018-07-10T06:56:31.690Z,57.31
2018-07-10T06:59:00.077Z,56.98
2018-07-10T07:01:27.736Z,56.46
2018-07-10T07:03:56.461Z,56.50
2018-07-10T07:06:24.644Z,55.91
2018-07-10T07:08:54.203Z,56.25
2018-07-10T07:11:22.959Z,56.33
2018-07-10T07:13:50.585Z,55.80
2018-07-10T07:16:18.244Z,55.52
2018-07-10T07:18:46.423Z,55.95
2018-07-10T07:21:15.707Z,56.37
2018-07-10T07:23:43.400Z,56.02
2018-07-10T07:26:12.171Z,55.72
2018-07-10T07:28:39.797Z,55.94
2018-07-10T07:31:07.543Z,55.94
2018-07-10T07:33:36.324Z,56.33
2018-07-10T07:36:04.465Z,56.51
2018-07-10T07:38:35.118Z,57.15
2018-07-10T07:41:04.762Z,57.05
2018-07-10T07:46:07.587Z,57.42
2018-07-10T07:48:35.537Z,57.24
2018-07-10T07:51:04.473Z,57.20
2018-07-10T07:53:32.368Z,57.56
2018-07-10T07:56:00.939Z,57.02
2018-07-10T07:58:29.372Z,57.04
2018-07-10T08:00:57.692Z,57.40
2018-07-10T08:03:26.383Z,57.55
2018-07-10T08:05:54.808Z,57.35
2018-07-10T08:08:27.957Z,57.51
2018-07-10T08:10:57.449Z,57.22
2018-07-10T08:13:25.400Z,57.35
2018-07-10T08:15:53.942Z,57.63
2018-07-10T08:18:21.952Z,58.01
2018-07-10T08:20:50.184Z,57.97
2018-07-10T08:23:18.440Z,58.33
2018-07-10T08:25:46.594Z,58.34
2018-07-10T08:28:17.243Z,58.45
2018-07-10T08:30:44.889Z,59.05
2018-07-10T08:33:12.795Z,58.67
2018-07-10T08:35:41.256Z,58.81
2018-07-10T08:38:08.916Z,59.93
2018-07-10T08:40:37.647Z,59.81
2018-07-10T08:43:06.415Z,60.22
2018-07-10T08:45:34.070Z,61.33
2018-07-10T08:48:03.993Z,60.74
2018-07-10T08:50:31.646Z,61.06
2018-07-10T08:52:59.278Z,61.25
2018-07-10T08:55:28.340Z,61.89
2018-07-10T08:57:56.795Z,62.09
2018-07-10T09:00:24.480Z,61.98
2018-07-10T09:02:53.422Z,62.00
2018-07-10T09:05:21.079Z,62.23
2018-07-10T09:07:49.632Z,63.19
2018-07-10T09:10:18.370Z,63.22
2018-07-10T09:12:46.684Z,63.76
2018-07-10T09:15:15.836Z,63.58
2018-07-10T09:17:44.467Z,64.50
2018-07-10T09:20:12.103Z,64.31
2018-07-10T09:22:39.811Z,64.74
2018-07-10T09:25:08.683Z,65.03
2018-07-10T09:27:39.076Z,65.43
2018-07-10T09:30:07.533Z,66.66
2018-07-10T09:32:40.435Z,66.75
2018-07-10T09:35:09.925Z,67.29
2018-07-10T09:37:42.565Z,67.60
2018-07-10T09:40:15.560Z,67.73
2018-07-10T09:42:43.277Z,68.28
2018-07-10T09:45:10.918Z,68.23
2018-07-10T09:47:38.871Z,68.70
2018-07-10T09:50:07.930Z,69.00
2018-07-10T09:52:35.663Z,69.26
2018-07-10T09:55:04.825Z,69.39
2018-07-10T09:57:34.321Z,69.98
2018-07-10T10:00:02.230Z,70.67
2018-07-10T10:02:34.688Z,70.67
2018-07-10T10:05:05.140Z,70.32
2018-07-10T10:07:32.853Z,70.77
2018-07-10T10:10:01.320Z,70.68
2018-07-10T10:12:29.006Z,71.27
2018-07-10T10:14:56.698Z,71.14
2018-07-10T10:17:25.220Z,71.29
2018-07-10T10:19:52.891Z,71.11
2018-07-10T10:22:20.704Z,72.10
2018-07-10T10:24:48.617Z,72.38
2018-07-10T10:27:16.256Z,72.34
2018-07-10T10:29:46.374Z,72.20
2018-07-10T10:32:14.268Z,72.05
2018-07-10T10:34:42.606Z,71.88
2018-07-10T10:37:10.294Z,72.38
2018-07-10T10:39:38.392Z,72.42
2018-07-10T10:42:06.049Z,72.52
2018-07-10T10:44:33.712Z,73.18
2018-07-10T10:47:02.576Z,72.81
2018-07-10T10:49:31.379Z,73.60
2018-07-10T10:51:59.719Z,72.80
2018-07-10T10:54:27.639Z,72.76
2018-07-10T10:56:59.589Z,73.14
2018-07-10T10:59:27.220Z,72.96
2018-07-10T11:01:55.393Z,73.05
2018-07-10T11:04:23.789Z,73.44
2018-07-10T11:06:52.148Z,73.17
2018-07-10T11:09:21.823Z,73.09
2018-07-10T11:11:49.531Z,73.21
2018-07-10T11:14:18.396Z,72.71
2018-07-10T11:16:47.197Z,72.99
2018-07-10T11:19:16.496Z,73.17
2018-07-10T11:21:45.307Z,72.73
2018-07-10T11:24:13.214Z,73.77
2018-07-10T11:26:41.873Z,73.23
2018-07-10T11:29:10.832Z,72.16
2018-07-10T11:31:42.850Z,72.46
2018-07-10T11:34:10.502Z,72.26
2018-07-10T11:36:38.314Z,72.15
2018-07-10T11:39:07.577Z,72.10
2018-07-10T11:41:35.237Z,72.54
2018-07-10T11:44:03.940Z,72.27
2018-07-10T11:46:32.840Z,72.68
2018-07-10T11:49:01.216Z,72.39
2018-07-10T12:30:31.970Z,74.13
2018-07-10T12:32:59.611Z,74.19
2018-07-10T12:35:30.820Z,73.04
2018-07-10T12:37:58.475Z,73.06
2018-07-10T12:40:26.140Z,72.76
2018-07-10T12:42:54.233Z,72.44
2018-07-10T12:45:24.436Z,72.87
2018-07-10T12:47:53.079Z,72.83
2018-07-10T12:50:21.524Z,72.96
2018-07-10T12:52:49.747Z,72.92
2018-07-10T12:55:17.425Z,72.70
2018-07-10T12:57:45.764Z,71.84
2018-07-10T13:00:15.716Z,71.74
2018-07-10T13:02:44.600Z,71.12
2018-07-10T13:05:13.236Z,71.77
2018-07-10T13:07:41.203Z,71.58
2018-07-10T13:10:09.505Z,71.87
2018-07-10T13:12:37.350Z,71.58
2018-07-10T13:15:06.406Z,72.41
2018-07-10T13:17:34.279Z,72.19
2018-07-10T13:20:02.353Z,72.38
2018-07-10T13:22:32.118Z,72.34
2018-07-10T13:24:59.776Z,71.33
2018-07-10T13:27:28.208Z,71.32
2018-07-10T13:29:56.465Z,71.02
2018-07-10T13:32:25.307Z,71.15
2018-07-10T13:34:53.631Z,71.43
2018-07-10T13:37:22.151Z,70.78
2018-07-10T13:39:49.836Z,68.91
2018-07-10T13:42:17.509Z,69.04
2018-07-10T13:44:45.436Z,68.13
2018-07-10T13:47:15.129Z,67.31
2018-07-10T13:49:43.498Z,67.36
2018-07-10T13:52:13.625Z,67.20
2018-07-10T13:54:43.310Z,67.54
2018-07-10T13:57:11.933Z,67.23
2018-07-10T13:59:41.045Z,67.12
2018-07-10T14:02:09.432Z,68.12
2018-07-10T14:04:39.918Z,67.84
2018-07-10T14:07:07.920Z,67.92
2018-07-10T14:09:36.243Z,68.31
2018-07-10T14:12:06.842Z,68.56
2018-07-10T14:14:36.440Z,69.40
2018-07-10T14:17:08.357Z,69.71
2018-07-10T14:19:37.472Z,69.78
2018-07-10T14:22:05.413Z,69.85
2018-07-10T14:24:33.527Z,70.53
2018-07-10T14:27:03.436Z,70.67
2018-07-10T14:29:33.182Z,71.91
2018-07-10T14:32:01.916Z,72.18
2018-07-10T14:34:34.358Z,72.41
2018-07-10T14:37:03.281Z,72.58
2018-07-10T14:39:30.940Z,73.29
2018-07-10T14:41:58.632Z,73.07
2018-07-10T14:44:26.573Z,73.21
2018-07-10T14:46:54.253Z,73.29
2018-07-10T14:49:21.953Z,74.02
2018-07-10T14:51:49.887Z,74.12
2018-07-10T14:54:17.561Z,74.38
2018-07-10T14:56:45.208Z,73.44
2018-07-10T14:59:13.490Z,73.94
2018-07-10T15:01:42.788Z,73.64
2018-07-10T15:04:12.613Z,74.62
2018-07-10T15:06:41.228Z,74.11
2018-07-10T15:09:11.091Z,74.73
2018-07-10T15:11:39.388Z,74.80
2018-07-10T15:14:09.412Z,75.06
2018-07-10T15:16:42.198Z,74.82
2018-07-10T15:19:09.919Z,74.96
2018-07-10T15:21:38.929Z,74.99
2018-07-10T15:24:08.627Z,75.76
2018-07-10T15:26:37.279Z,75.84
2018-07-10T15:29:06.528Z,76.03
2018-07-10T15:31:34.701Z,76.10
2018-07-10T15:34:03.226Z,76.44
2018-07-10T15:36:31.404Z,76.72
2018-07-10T15:38:59.108Z,77.01
2018-07-10T15:41:26.849Z,77.18
2018-07-10T15:43:55.459Z,77.95
2018-07-10T15:46:23.632Z,77.91
2018-07-10T15:48:52.181Z,77.79
2018-07-10T15:51:21.610Z,78.08
2018-07-10T15:53:50.196Z,77.84
2018-07-10T15:56:19.458Z,77.23
2018-07-10T15:58:50.463Z,77.47
2018-07-10T16:01:18.588Z,76.93
2018-07-10T16:03:46.259Z,77.22
2018-07-10T16:06:15.572Z,76.86
2018-07-10T16:08:44.432Z,76.70
2018-07-10T16:11:12.338Z,76.79
2018-07-10T16:13:42.332Z,76.00
2018-07-10T16:16:10.032Z,76.46
2018-07-10T16:18:38.397Z,77.24
2018-07-10T16:21:07.983Z,77.31
2018-07-10T16:23:35.636Z,77.35
2018-07-10T16:26:03.990Z,76.90
2018-07-10T16:28:33.090Z,77.10
2018-07-10T16:31:01.477Z,76.77
2018-07-10T16:33:30.320Z,76.74
2018-07-10T16:36:01.315Z,76.55
2018-07-10T16:38:29.773Z,76.40
2018-07-10T16:41:03.193Z,75.68
2018-07-10T16:43:32.469Z,75.93
2018-07-10T16:46:00.148Z,75.77
2018-07-10T16:48:28.656Z,76.03
2018-07-10T16:50:57.211Z,75.78
2018-07-10T16:53:24.872Z,75.79
2018-07-10T16:55:52.540Z,76.16
2018-07-10T16:58:20.524Z,76.14
2018-07-10T17:00:49.336Z,76.05
2018-07-10T17:03:16.997Z,76.75
2018-07-10T17:05:44.948Z,76.03
2018-07-10T17:08:13.575Z,76.23
2018-07-10T17:10:42.932Z,75.76
2018-07-10T17:13:10.924Z,75.71
2018-07-10T17:15:39.089Z,75.09
2018-07-10T17:18:07.268Z,75.58
2018-07-10T17:20:40.489Z,75.00
2018-07-10T17:23:08.333Z,75.46
2018-07-10T17:25:42.116Z,75.15
2018-07-10T17:28:10.061Z,75.62
2018-07-10T17:30:40.393Z,75.56
2018-07-10T17:33:11.261Z,75.79
2018-07-10T17:35:39.260Z,75.47
2018-07-10T17:38:08.400Z,75.71
2018-07-10T17:40:36.612Z,75.63
2018-07-10T17:43:06.380Z,76.23
2018-07-10T17:45:34.056Z,76.52
2018-07-10T17:48:01.753Z,76.53
2018-07-10T17:50:33.936Z,76.16
2018-07-10T17:53:02.416Z,76.10
2018-07-10T17:55:31.368Z,76.52
2018-07-10T17:58:02.540Z,75.89
2018-07-10T18:06:34.114Z,76.50
2018-07-10T18:09:02.996Z,75.90
2018-07-10T18:11:31.321Z,75.34
2018-07-10T18:14:02.989Z,75.15
2018-07-10T18:16:41.432Z,75.07
2018-07-10T18:19:12.575Z,74.71
2018-07-10T18:21:43.229Z,75.30
2018-07-10T18:24:12.230Z,75.01
2018-07-10T18:26:40.950Z,75.00
2018-07-10T18:29:10.531Z,74.18
2018-07-10T18:31:39.788Z,74.75
2018-07-10T18:34:09.250Z,74.41
2018-07-10T18:36:37.540Z,74.77
2018-07-10T18:39:10.716Z,74.16
2018-07-10T18:41:41.690Z,74.85
2018-07-10T18:44:12.631Z,74.67
2018-07-10T18:46:42.631Z,74.13
2018-07-10T18:49:12.576Z,74.73
2018-07-10T18:51:45.854Z,74.99
2018-07-10T18:54:14.603Z,74.70
2018-07-10T18:56:45.619Z,74.12
2018-07-10T18:59:13.444Z,74.20
2018-07-10T19:01:44.528Z,74.53
2018-07-10T19:04:12.490Z,74.52
2018-07-10T19:06:40.585Z,75.23
2018-07-10T19:09:08.929Z,75.26
2018-07-10T19:11:39.771Z,75.88
2018-07-10T19:14:07.406Z,75.37
2018-07-10T19:16:37.121Z,75.37
2018-07-10T19:19:06.447Z,75.94
2018-07-10T19:21:35.575Z,76.53
2018-07-10T19:24:05.324Z,76.83
2018-07-10T19:26:34.497Z,76.35
2018-07-10T19:29:03.364Z,77.02
2018-07-10T19:31:34.174Z,76.53
2018-07-10T19:34:02.300Z,76.83
2018-07-10T19:39:32.308Z,77.84
2018-07-10T19:42:00.579Z,77.37
2018-07-10T19:44:29.965Z,77.65
2018-07-10T19:46:57.949Z,77.84
2018-07-10T19:49:28.756Z,77.37
2018-07-10T19:51:58.077Z,78.21
2018-07-10T19:54:26.752Z,77.92
2018-07-10T19:56:56.404Z,78.19
2018-07-10T19:59:24.082Z,77.51
2018-07-10T20:02:01.949Z,78.00
2018-07-10T20:04:29.747Z,77.34
2018-07-10T20:06:58.447Z,77.97
2018-07-10T20:09:26.553Z,78.06
2018-07-10T20:11:55.507Z,77.64
2018-07-10T20:14:24.154Z,77.75
2018-07-10T20:19:29.591Z,77.99
2018-07-10T20:22:00.596Z,77.29
2018-07-10T20:24:28.811Z,78.16
2018-07-10T20:26:56.575Z,77.79
2018-07-10T20:29:26.202Z,78.19
2018-07-10T20:31:53.863Z,77.79
2018-07-10T20:34:22.208Z,78.20
2018-07-10T20:36:51.861Z,77.85
2018-07-10T20:39:19.559Z,78.28
2018-07-10T20:41:49.004Z,78.32
2018-07-10T20:44:21.681Z,78.16
2018-07-10T20:46:50.665Z,78.52
2018-07-10T20:49:24.667Z,78.05
2018-07-10T20:54:28.421Z,78.06
2018-07-10T20:56:57.774Z,78.08
2018-07-10T20:59:25.787Z,78.54
2018-07-10T21:01:54.459Z,78.88
2018-07-10T21:04:22.958Z,78.11
2018-07-10T21:06:51.644Z,78.52
2018-07-10T21:09:19.314Z,78.70
2018-07-10T21:14:27.395Z,77.84
2018-07-10T21:16:55.948Z,78.30
2018-07-10T21:19:24.822Z,77.96
2018-07-10T21:21:53.749Z,77.93
2018-07-10T21:24:22.286Z,78.19
2018-07-10T21:26:51.639Z,77.78
2018-07-10T21:29:19.623Z,77.78
2018-07-10T21:31:47.346Z,77.68
2018-07-10T21:34:15.394Z,77.27
2018-07-10T21:36:45.457Z,77.16
2018-07-10T21:39:15.293Z,76.98
2018-07-10T21:41:44.480Z,77.25
2018-07-10T21:44:13.407Z,76.60
2018-07-10T21:46:41.642Z,76.43
2018-07-10T21:49:09.289Z,76.31
2018-07-10T21:51:41.388Z,75.90
2018-07-10T21:54:11.408Z,76.35
2018-07-10T21:56:39.404Z,75.69
2018-07-10T21:59:08.431Z,76.48
2018-07-10T22:01:37.255Z,75.93
2018-07-10T22:04:05.752Z,75.64
2018-07-10T22:06:33.704Z,76.11
2018-07-10T22:09:02.216Z,75.63
2018-07-10T22:11:30.708Z,76.03
2018-07-10T22:14:00.252Z,75.52
2018-07-10T22:16:28.983Z,75.91
2018-07-10T22:18:56.651Z,76.35
2018-07-10T22:21:24.628Z,75.51
2018-07-10T22:23:52.287Z,75.48
2018-07-10T22:26:20.780Z,75.72
2018-07-10T22:28:52.340Z,75.97
2018-07-10T22:33:27.370Z,76.05
2018-07-10T22:36:01.229Z,75.95
2018-07-10T22:38:30.224Z,76.23
2018-07-10T22:40:57.905Z,76.96
2018-07-10T22:43:25.848Z,76.86
2018-07-10T22:45:54.194Z,76.57
2018-07-10T22:48:22.432Z,75.85
2018-07-10T22:50:50.644Z,76.03
2018-07-10T22:53:18.599Z,76.50
2018-07-10T22:55:47.838Z,75.77
2018-07-10T22:58:16.664Z,75.84
2018-07-10T23:00:44.627Z,75.57
2018-07-10T23:03:12.305Z,75.99
2018-07-10T23:05:39.991Z,75.46
2018-07-10T23:08:07.988Z,75.85
2018-07-10T23:10:35.673Z,76.26
2018-07-10T23:13:03.373Z,76.01
2018-07-10T23:15:32.308Z,75.62
2018-07-10T23:17:59.970Z,75.95
2018-07-10T23:20:27.667Z,75.93
2018-07-10T23:22:55.708Z,75.39
2018-07-10T23:25:25.767Z,75.75
2018-07-10T23:27:53.424Z,75.14
2018-07-10T23:30:21.368Z,75.33
2018-07-10T23:32:49.007Z,75.06
2018-07-10T23:35:16.672Z,74.86
2018-07-10T23:37:44.670Z,75.13
2018-07-10T23:40:12.362Z,75.01
2018-07-10T23:42:40.029Z,75.34
2018-07-10T23:45:07.720Z,74.42
2018-07-10T23:47:35.686Z,75.08
2018-07-10T23:50:04.887Z,74.90
2018-07-10T23:52:33.370Z,74.74
2018-07-10T23:55:01.568Z,74.95
2018-07-10T23:57:29.686Z,74.85
2018-07-10T23:59:57.554Z,75.10
